Aviation Digital Data Service (ADDS)

Output produced by METARs form (0857 UTC 26 May 2019)
found at http://www.aviationweather.gov/metar/data/
 
KIND 260818Z 2608/2712 23009KT P6SM VCTS SCT035CB BKN250 
     TEMPO 2609/2610 3SM -TSRA BR OVC035CB 
     FM261200 25010KT P6SM VCTS SCT040CB BKN060 
     FM261500 26007KT P6SM BKN070 BKN250 
     FM261800 25008KT P6SM VCTS BKN040CB BKN120 
     FM270000 31005KT P6SM BKN060 
     FM270600 VRB03KT P6SM BKN030